RU-0045 weather

Saratov South Airport
Saratov, Saratov Oblast, Russia

Public forecast

Using degrees Celsius for public forecast. Weather courtesy of forecast.io.

Closest aviation weather report (METAR) to Saratov South Airport

Report is more than 6 hours old.

Closest report is Saratov Central Airport, 6.5 nm (12.1 km) NE. Retrieved 2019/08/20 03:00 UTC (4 months ago):

UWSS 200300Z 33003MPS CAVOK 20/15 Q1018 R30/010095 NOSIG RMK QFE750

Closest aviation forecast (TAF) to Saratov South Airport

Forecast is more than 12 hours old.

Closest forecast is Saratov Central Airport, 6.5 nm (12.1 km) NE. Retrieved 2016/08/14 06:12 UTC (3 years ago):

TAF TAF UWSS 140500Z 1406/1418 03003MPS 9999 SCT040CB TEMPO 1406/1418 VRB18MPS 2100 -TSRAGR SQ BKN007 BKN030CB